Time;durP1;ratioP1;P1;durP2;ratioP2;P2;SDS_P1;SDS_P2;PMS_P1;PMS_P2;Temp;Humidity;BMP_temperature;BMP_pressure;BME280_temperature;BME280_humidity;BME280_pressure;Samples;Min_cycle;Max_cycle;Signal;HPM_P1;HPM_P2
2021/06/24 00:01:31;;;;;;;5.57;3.70;;;15.30;99.90;;;;;;5051611;28;20559;-81
2021/06/24 00:03:58;;;;;;;5.32;3.20;;;15.30;99.90;;;;;;5049262;28;20203;-80
2021/06/24 00:06:25;;;;;;;9.10;4.35;;;15.30;99.90;;;;;;5050164;28;20750;-80
2021/06/24 00:08:53;;;;;;;6.25;3.22;;;15.30;99.90;;;;;;5048026;28;20637;-80
2021/06/24 00:11:20;;;;;;;6.43;4.57;;;15.30;99.90;;;;;;5050819;28;20264;-78
2021/06/24 00:13:47;;;;;;;8.38;4.55;;;15.30;99.90;;;;;;5051081;28;20206;-77
2021/06/24 00:16:15;;;;;;;7.75;3.50;;;15.30;99.90;;;;;;5050628;28;20230;-79
2021/06/24 00:18:42;;;;;;;6.50;3.45;;;15.20;99.90;;;;;;5049104;28;20735;-82
2021/06/24 00:21:09;;;;;;;3.45;2.83;;;15.30;99.90;;;;;;5051414;28;20199;-76
2021/06/24 00:23:36;;;;;;;5.53;3.95;;;15.20;99.90;;;;;;5047487;28;20211;-78
2021/06/24 00:26:04;;;;;;;4.55;3.35;;;15.20;99.90;;;;;;5050860;28;20211;-79
2021/06/24 00:28:31;;;;;;;4.35;2.85;;;15.10;99.90;;;;;;5050912;28;20211;-78
2021/06/24 00:30:59;;;;;;;3.72;3.35;;;15.20;99.90;;;;;;5048259;28;20207;-76
2021/06/24 00:33:26;;;;;;;7.18;3.53;;;15.20;99.90;;;;;;5050001;28;20566;-79
2021/06/24 00:35:53;;;;;;;5.88;3.38;;;15.20;99.90;;;;;;5049965;28;20285;-79
2021/06/24 00:38:20;;;;;;;5.30;3.65;;;15.10;99.90;;;;;;5051154;28;20284;-83
2021/06/24 00:40:47;;;;;;;3.83;2.95;;;15.00;99.90;;;;;;5049607;28;20252;-77
2021/06/24 00:43:18;;;;;;;5.28;3.83;;;15.10;99.90;;;;;;5048477;28;20260;-77
2021/06/24 00:45:45;;;;;;;4.15;3.13;;;15.20;99.90;;;;;;5049684;28;20724;-78
2021/06/24 00:48:13;;;;;;;3.85;3.45;;;15.20;99.90;;;;;;5050933;28;20203;-78
2021/06/24 00:50:44;;;;;;;4.13;3.63;;;15.30;99.90;;;;;;5050479;28;20732;-79
2021/06/24 00:53:12;;;;;;;6.25;4.38;;;15.30;99.90;;;;;;5048508;28;20203;-78
2021/06/24 00:55:42;;;;;;;5.43;3.67;;;15.30;99.90;;;;;;5057758;28;20279;-76
2021/06/24 00:58:11;;;;;;;3.40;3.10;;;15.30;99.90;;;;;;5045207;28;20211;-76
2021/06/24 01:00:41;;;;;;;7.00;3.67;;;15.20;99.90;;;;;;5047796;28;20210;-76
2021/06/24 01:03:08;;;;;;;4.22;3.83;;;15.20;99.90;;;;;;5050427;28;20203;-79
2021/06/24 01:05:37;;;;;;;5.47;3.63;;;15.30;99.90;;;;;;5049209;28;20234;-78
2021/06/24 01:08:04;;;;;;;5.00;4.05;;;15.20;99.90;;;;;;5050736;28;20272;-75
2021/06/24 01:10:31;;;;;;;3.92;2.95;;;15.30;99.90;;;;;;5048783;28;20219;-76
2021/06/24 01:12:58;;;;;;;7.57;3.42;;;15.30;99.90;;;;;;5048325;28;20203;-76
2021/06/24 01:15:25;;;;;;;4.45;4.05;;;15.30;99.90;;;;;;5050625;28;20234;-80
2021/06/24 01:17:54;;;;;;;7.40;4.30;;;15.20;99.90;;;;;;5049999;28;20727;-80
2021/06/24 01:20:25;;;;;;;5.15;3.55;;;15.20;99.90;;;;;;5048697;28;20676;-80
2021/06/24 01:22:52;;;;;;;6.68;3.60;;;15.30;99.90;;;;;;5050439;28;20211;-83
2021/06/24 01:25:22;;;;;;;6.55;2.92;;;15.30;99.90;;;;;;5050699;28;20206;-81
2021/06/24 01:27:54;;;;;;;5.60;3.65;;;15.30;99.90;;;;;;5048457;28;20230;-80
2021/06/24 01:30:22;;;;;;;4.80;3.42;;;15.30;99.90;;;;;;5045819;28;20256;-73
2021/06/24 01:32:49;;;;;;;7.20;4.05;;;15.20;99.90;;;;;;5049905;28;20723;-84
2021/06/24 01:35:20;;;;;;;3.90;3.60;;;15.30;99.90;;;;;;5048993;28;20672;-74
2021/06/24 01:37:48;;;;;;;7.32;3.85;;;15.30;99.90;;;;;;5049199;28;20285;-77
2021/06/24 01:40:15;;;;;;;4.43;3.85;;;15.30;99.90;;;;;;5048174;28;20257;-73
2021/06/24 01:42:43;;;;;;;5.13;3.35;;;15.20;99.90;;;;;;5049863;28;20592;-75
2021/06/24 01:45:11;;;;;;;5.75;3.47;;;15.20;99.90;;;;;;5050535;28;20256;-76
2021/06/24 01:47:38;;;;;;;5.15;2.75;;;15.10;99.90;;;;;;5047354;28;20203;-75
2021/06/24 01:50:09;;;;;;;4.78;2.70;;;15.10;99.90;;;;;;5050047;28;20574;-74
2021/06/24 01:52:36;;;;;;;4.95;3.10;;;15.10;99.90;;;;;;5047483;28;20207;-82
2021/06/24 01:55:04;;;;;;;4.53;3.20;;;15.10;99.90;;;;;;5048966;28;20230;-75
2021/06/24 01:57:31;;;;;;;3.08;2.70;;;15.10;99.90;;;;;;5048210;28;20204;-79
2021/06/24 01:59:59;;;;;;;8.50;2.88;;;15.10;99.90;;;;;;5058958;28;20211;-76
2021/06/24 02:02:26;;;;;;;7.53;2.45;;;15.10;99.90;;;;;;5046995;28;20261;-81
2021/06/24 02:04:53;;;;;;;10.73;3.15;;;15.20;99.90;;;;;;5048069;28;20210;-77
2021/06/24 02:07:20;;;;;;;4.93;2.83;;;15.20;99.90;;;;;;5047768;28;20260;-75
2021/06/24 02:09:47;;;;;;;3.55;2.60;;;15.10;99.90;;;;;;5048028;28;20215;-81
2021/06/24 02:12:15;;;;;;;4.22;2.45;;;15.00;99.90;;;;;;5048842;28;20215;-75
2021/06/24 02:14:42;;;;;;;3.05;2.70;;;15.10;99.90;;;;;;5050662;28;20261;-79
2021/06/24 02:17:10;;;;;;;4.05;1.55;;;15.10;99.90;;;;;;5053486;28;20662;-75
2021/06/24 02:19:37;;;;;;;2.38;1.80;;;15.00;99.90;;;;;;5049264;28;20260;-76
2021/06/24 02:22:05;;;;;;;2.65;2.15;;;15.00;99.90;;;;;;5053950;28;20241;-78
2021/06/24 02:24:32;;;;;;;2.38;1.98;;;15.00;99.90;;;;;;5053849;28;20203;-82
2021/06/24 02:26:59;;;;;;;4.78;1.95;;;15.00;99.90;;;;;;5050274;28;20265;-76
2021/06/24 02:29:25;;;;;;;5.65;2.22;;;15.00;99.90;;;;;;5051303;28;20207;-74
2021/06/24 02:31:52;;;;;;;3.63;2.38;;;14.90;99.90;;;;;;5051074;28;20626;-82
2021/06/24 02:34:22;;;;;;;2.58;1.65;;;14.90;99.90;;;;;;5050457;28;20629;-75
2021/06/24 02:36:49;;;;;;;3.83;1.88;;;14.80;99.90;;;;;;5052799;28;20718;-84
2021/06/24 02:39:16;;;;;;;2.20;1.50;;;14.90;99.90;;;;;;5049777;28;20199;-74
2021/06/24 02:41:43;;;;;;;1.95;1.48;;;14.90;99.90;;;;;;5050066;28;20827;-74
2021/06/24 02:44:10;;;;;;;2.10;1.67;;;14.90;99.90;;;;;;5051433;28;20241;-73
2021/06/24 02:46:38;;;;;;;5.22;1.75;;;14.90;99.90;;;;;;5051610;28;20237;-75
2021/06/24 02:49:05;;;;;;;3.22;1.55;;;14.90;99.90;;;;;;5051922;28;20294;-73
2021/06/24 02:51:34;;;;;;;5.68;2.22;;;15.00;99.90;;;;;;5049861;28;20211;-78
2021/06/24 02:54:01;;;;;;;2.38;1.58;;;14.90;99.90;;;;;;5051235;28;20210;-79
2021/06/24 02:56:28;;;;;;;2.53;1.73;;;14.90;99.90;;;;;;5052734;28;20230;-73
2021/06/24 02:58:55;;;;;;;2.67;1.85;;;14.90;99.90;;;;;;5050687;28;20693;-74
2021/06/24 03:01:22;;;;;;;2.85;1.48;;;14.90;99.90;;;;;;5051851;28;20257;-76
2021/06/24 03:03:48;;;;;;;3.67;1.70;;;15.00;99.90;;;;;;5052112;28;20211;-74
2021/06/24 03:06:15;;;;;;;3.65;1.73;;;15.00;99.90;;;;;;5053029;28;20203;-75
2021/06/24 03:08:44;;;;;;;3.63;1.88;;;14.90;99.90;;;;;;5050655;28;20260;-74
2021/06/24 03:11:11;;;;;;;2.05;1.85;;;14.90;99.90;;;;;;5043977;28;20199;-79
2021/06/24 03:13:38;;;;;;;2.28;1.63;;;14.80;99.90;;;;;;5050607;28;20257;-74
2021/06/24 03:16:06;;;;;;;2.15;1.92;;;14.90;99.90;;;;;;5052178;28;20234;-74
2021/06/24 03:18:33;;;;;;;5.63;1.80;;;14.90;99.90;;;;;;5050765;28;20210;-76
2021/06/24 03:21:00;;;;;;;2.38;1.90;;;15.00;99.90;;;;;;5052794;28;20280;-81
2021/06/24 03:23:27;;;;;;;2.85;1.75;;;15.00;99.90;;;;;;5045368;28;20202;-82
2021/06/24 03:25:55;;;;;;;3.45;1.88;;;14.90;99.90;;;;;;5049113;28;20284;-76
2021/06/24 03:28:22;;;;;;;3.17;2.10;;;14.90;99.90;;;;;;5050413;28;20605;-86
2021/06/24 03:30:50;;;;;;;3.17;2.00;;;14.80;99.90;;;;;;5046710;28;20207;-79
2021/06/24 03:33:17;;;;;;;7.30;2.30;;;14.80;99.90;;;;;;5051131;28;20202;-75
2021/06/24 03:35:47;;;;;;;3.60;2.33;;;14.80;99.90;;;;;;5051134;28;20780;-81
2021/06/24 03:38:14;;;;;;;5.18;2.00;;;14.90;99.90;;;;;;5048536;28;20253;-86
2021/06/24 03:40:41;;;;;;;2.50;2.30;;;14.90;99.90;;;;;;5050165;28;20211;-86
2021/06/24 03:43:10;;;;;;;3.78;1.90;;;14.90;99.90;;;;;;5046975;28;20253;-74
2021/06/24 03:45:39;;;;;;;6.95;2.10;;;15.00;99.90;;;;;;5051598;28;20211;-74
2021/06/24 03:48:07;;;;;;;2.63;1.92;;;14.90;99.90;;;;;;5049924;28;20202;-75
2021/06/24 03:50:34;;;;;;;5.60;2.25;;;14.90;99.90;;;;;;5051754;28;20206;-80
2021/06/24 03:53:01;;;;;;;4.63;3.00;;;14.80;99.90;;;;;;5050248;28;20210;-75
2021/06/24 03:55:37;;;;;;;3.88;1.70;;;14.80;99.90;;;;;;5051725;28;20288;-91
2021/06/24 03:58:05;;;;;;;2.85;2.20;;;14.80;99.90;;;;;;5048248;28;20294;-89
2021/06/24 04:00:35;;;;;;;3.65;2.42;;;14.80;99.90;;;;;;5049933;28;20667;-93
2021/06/24 04:03:02;;;;;;;6.32;2.58;;;14.80;99.90;;;;;;5051093;28;20203;-74
2021/06/24 04:05:31;;;;;;;3.38;2.15;;;14.90;99.90;;;;;;5050804;28;20206;-87
2021/06/24 04:07:59;;;;;;;4.15;2.25;;;15.00;99.90;;;;;;5056499;28;20306;-75
2021/06/24 04:10:26;;;;;;;5.28;2.78;;;14.90;99.90;;;;;;5039496;28;20306;-86
2021/06/24 04:12:54;;;;;;;4.60;2.78;;;14.80;99.90;;;;;;5049560;28;20256;-76
2021/06/24 04:15:21;;;;;;;4.68;2.60;;;14.90;99.90;;;;;;5051414;28;20261;-75
2021/06/24 04:17:50;;;;;;;5.28;2.90;;;14.90;99.90;;;;;;5048561;28;20211;-83
2021/06/24 04:20:17;;;;;;;6.97;2.60;;;14.90;99.90;;;;;;5050965;28;20207;-77
2021/06/24 04:22:45;;;;;;;4.03;2.63;;;14.90;99.90;;;;;;5049919;28;20240;-77
2021/06/24 04:25:14;;;;;;;5.55;3.47;;;15.00;99.90;;;;;;5044859;28;20681;-73
2021/06/24 04:27:42;;;;;;;6.55;2.90;;;14.90;99.90;;;;;;5048691;28;20260;-72
2021/06/24 04:30:10;;;;;;;4.90;2.78;;;14.80;99.90;;;;;;5049179;28;20261;-82
2021/06/24 04:32:38;;;;;;;7.35;2.72;;;14.80;99.90;;;;;;5049291;28;20207;-72
2021/06/24 04:35:07;;;;;;;10.65;2.97;;;14.80;99.90;;;;;;5045080;28;20266;-73
2021/06/24 04:37:34;;;;;;;8.68;3.55;;;14.90;99.90;;;;;;5048904;28;20235;-72
2021/06/24 04:40:01;;;;;;;4.88;2.67;;;14.90;99.90;;;;;;5050562;28;20214;-81
2021/06/24 04:42:29;;;;;;;6.25;3.38;;;14.90;99.90;;;;;;5045851;28;20211;-83
2021/06/24 04:44:56;;;;;;;3.30;2.67;;;14.90;99.90;;;;;;5049533;28;20246;-73
2021/06/24 04:47:23;;;;;;;2.13;1.95;;;14.80;99.90;;;;;;5049818;28;20202;-83
2021/06/24 04:49:50;;;;;;;3.97;2.60;;;14.80;99.90;;;;;;5048509;28;20207;-75
2021/06/24 04:52:18;;;;;;;7.28;2.80;;;14.80;99.90;;;;;;5049671;28;20256;-84
2021/06/24 04:54:46;;;;;;;3.35;3.03;;;14.70;99.90;;;;;;5046337;28;20208;-84
2021/06/24 04:57:13;;;;;;;3.42;2.80;;;14.70;99.90;;;;;;5048731;28;20227;-84
2021/06/24 04:59:40;;;;;;;4.05;2.28;;;14.70;99.90;;;;;;5049624;28;20242;-76
2021/06/24 05:02:07;;;;;;;3.47;2.95;;;14.80;99.90;;;;;;5049182;28;20203;-76
2021/06/24 05:04:34;;;;;;;3.42;2.95;;;14.90;99.90;;;;;;5048532;28;20206;-76
2021/06/24 05:07:06;;;;;;;2.70;2.50;;;14.90;99.90;;;;;;5051192;28;20264;-80
2021/06/24 05:09:39;;;;;;;4.60;2.67;;;14.90;99.90;;;;;;5054054;28;20244;-80
2021/06/24 05:12:06;;;;;;;5.45;2.92;;;14.90;99.90;;;;;;5051254;28;20294;-75
2021/06/24 05:14:33;;;;;;;4.88;3.38;;;14.90;99.90;;;;;;5057763;28;20206;-75
2021/06/24 05:17:00;;;;;;;5.75;2.92;;;15.00;99.90;;;;;;5052746;28;20238;-80
2021/06/24 05:19:28;;;;;;;5.72;3.60;;;15.00;99.90;;;;;;5049936;28;20211;-78
2021/06/24 05:21:55;;;;;;;2.85;2.47;;;15.00;99.90;;;;;;5048454;28;20752;-88
2021/06/24 05:24:22;;;;;;;4.10;3.60;;;15.00;99.90;;;;;;5049646;28;20257;-75
2021/06/24 05:26:50;;;;;;;6.47;3.33;;;15.00;99.90;;;;;;5043587;28;20199;-76
2021/06/24 05:29:18;;;;;;;7.10;3.83;;;14.90;99.90;;;;;;5049519;28;20215;-82
2021/06/24 05:31:45;;;;;;;3.63;3.22;;;14.90;99.90;;;;;;5049447;28;20321;-76
2021/06/24 05:34:13;;;;;;;3.50;2.78;;;15.10;99.90;;;;;;5049156;28;20289;-78
2021/06/24 05:36:40;;;;;;;2.67;2.40;;;15.00;99.90;;;;;;5048543;28;20706;-76
2021/06/24 05:39:07;;;;;;;6.25;2.85;;;15.00;99.90;;;;;;5049630;28;20646;-80
2021/06/24 05:41:35;;;;;;;3.15;2.55;;;15.10;99.90;;;;;;5049923;28;20229;-78
2021/06/24 05:44:04;;;;;;;7.10;2.83;;;15.10;99.90;;;;;;5047409;28;20285;-79
2021/06/24 05:46:32;;;;;;;3.55;2.13;;;15.20;99.90;;;;;;5045875;28;20240;-78
2021/06/24 05:48:59;;;;;;;6.32;2.92;;;15.10;99.90;;;;;;5038471;28;20240;-80
2021/06/24 05:51:26;;;;;;;3.22;2.72;;;15.10;99.90;;;;;;5053732;28;20207;-82
2021/06/24 05:53:54;;;;;;;3.05;2.33;;;15.10;99.90;;;;;;5051020;28;20203;-79
2021/06/24 05:56:23;;;;;;;2.92;2.70;;;15.10;99.90;;;;;;5052161;28;20646;-81
2021/06/24 05:58:50;;;;;;;5.97;2.90;;;15.20;99.90;;;;;;5053335;28;20229;-85
2021/06/24 06:01:20;;;;;;;2.58;2.33;;;15.40;99.90;;;;;;5054099;28;20214;-78
2021/06/24 06:03:47;;;;;;;3.88;2.70;;;15.30;99.90;;;;;;5053419;28;20203;-78
2021/06/24 06:06:15;;;;;;;4.90;3.55;;;15.30;99.90;;;;;;5049919;28;20266;-77
2021/06/24 06:08:42;;;;;;;5.90;2.97;;;15.30;99.90;;;;;;5053218;28;20203;-78
2021/06/24 06:11:09;;;;;;;4.05;2.83;;;15.40;99.90;;;;;;5053178;28;20686;-82
2021/06/24 06:13:36;;;;;;;3.90;3.28;;;15.40;99.90;;;;;;5049277;28;20212;-77
2021/06/24 06:16:04;;;;;;;5.57;2.75;;;15.50;99.90;;;;;;5053829;28;20211;-77
2021/06/24 06:18:33;;;;;;;3.03;2.78;;;15.50;99.90;;;;;;5054123;28;20206;-79
2021/06/24 06:21:00;;;;;;;7.68;4.75;;;15.50;99.90;;;;;;5054001;28;20264;-84
2021/06/24 06:23:28;;;;;;;6.70;3.35;;;15.60;99.90;;;;;;5054297;28;20203;-81
2021/06/24 06:25:56;;;;;;;10.82;4.30;;;15.50;99.90;;;;;;5053623;28;20206;-80
2021/06/24 06:28:25;;;;;;;3.30;2.80;;;15.50;99.90;;;;;;5053840;28;20203;-84
2021/06/24 06:30:53;;;;;;;4.05;2.97;;;15.60;99.90;;;;;;5048792;28;20233;-80
2021/06/24 06:33:21;;;;;;;3.88;3.20;;;15.60;99.90;;;;;;5046743;28;20210;-79
2021/06/24 06:35:51;;;;;;;5.10;3.22;;;15.60;99.90;;;;;;5052486;28;20264;-88
2021/06/24 06:38:18;;;;;;;9.32;3.40;;;15.60;99.90;;;;;;5054578;28;20630;-77
2021/06/24 06:40:45;;;;;;;3.97;3.13;;;15.60;99.90;;;;;;5053292;28;20207;-79
2021/06/24 06:43:15;;;;;;;3.38;3.08;;;15.60;99.90;;;;;;5053705;28;20207;-83
2021/06/24 06:45:42;;;;;;;4.57;3.20;;;15.60;99.90;;;;;;5053558;28;20583;-76
2021/06/24 06:48:09;;;;;;;4.43;3.58;;;15.70;99.90;;;;;;5053594;28;20210;-75
2021/06/24 06:50:36;;;;;;;4.03;3.63;;;15.60;99.90;;;;;;5053102;28;20295;-78
2021/06/24 06:53:05;;;;;;;4.60;4.07;;;15.70;99.90;;;;;;5053813;28;20207;-77
2021/06/24 06:55:33;;;;;;;6.03;3.20;;;15.70;99.90;;;;;;5053390;28;20239;-73
2021/06/24 06:58:00;;;;;;;5.22;3.78;;;15.70;99.90;;;;;;5052897;28;20717;-78
2021/06/24 07:00:29;;;;;;;5.63;4.13;;;15.60;99.90;;;;;;5052198;28;20211;-80
2021/06/24 07:02:56;;;;;;;7.95;3.80;;;15.60;99.90;;;;;;5050043;28;20211;-74
2021/06/24 07:05:23;;;;;;;3.67;3.38;;;15.80;99.90;;;;;;5040098;28;20603;-75
2021/06/24 07:07:50;;;;;;;5.32;3.92;;;15.80;99.90;;;;;;5052885;28;20257;-76
2021/06/24 07:10:19;;;;;;;4.70;4.13;;;15.60;99.90;;;;;;5040892;28;20273;-78
2021/06/24 07:12:46;;;;;;;4.75;3.58;;;15.60;99.90;;;;;;5052678;28;20207;-76
2021/06/24 07:15:14;;;;;;;4.90;3.95;;;15.70;99.90;;;;;;5052703;28;20276;-76
2021/06/24 07:17:41;;;;;;;5.80;3.55;;;15.70;99.90;;;;;;5052086;28;20235;-79
2021/06/24 07:20:10;;;;;;;4.38;3.78;;;15.70;99.90;;;;;;5052782;28;20289;-76
2021/06/24 07:22:37;;;;;;;4.40;4.10;;;15.80;99.90;;;;;;5051791;28;20256;-76
2021/06/24 07:25:05;;;;;;;8.52;4.53;;;16.00;99.90;;;;;;5049319;28;20211;-77
2021/06/24 07:27:34;;;;;;;6.40;4.70;;;16.10;99.90;;;;;;5044926;28;20211;-70
2021/06/24 07:30:01;;;;;;;7.88;3.35;;;16.10;99.90;;;;;;5047537;28;20203;-71
2021/06/24 07:32:28;;;;;;;5.72;3.75;;;16.00;99.90;;;;;;5051963;28;20203;-71
2021/06/24 07:34:55;;;;;;;4.50;4.05;;;16.00;99.90;;;;;;5047512;28;20257;-70
2021/06/24 07:37:22;;;;;;;6.53;4.05;;;15.90;99.90;;;;;;5049403;28;20241;-69
2021/06/24 07:39:49;;;;;;;4.65;4.15;;;16.00;99.90;;;;;;5047525;28;20206;-73
2021/06/24 07:42:19;;;;;;;5.95;4.00;;;16.00;99.90;;;;;;5052014;28;20272;-74
2021/06/24 07:44:48;;;;;;;6.13;4.03;;;16.10;99.90;;;;;;5051072;28;20207;-72
2021/06/24 07:47:18;;;;;;;9.15;4.22;;;16.10;99.90;;;;;;5051778;28;20253;-71
2021/06/24 07:49:45;;;;;;;9.23;5.50;;;16.30;99.90;;;;;;5051033;28;20207;-70
2021/06/24 07:52:12;;;;;;;4.50;4.05;;;16.40;99.90;;;;;;5051634;28;20203;-76
2021/06/24 07:54:39;;;;;;;7.00;4.28;;;16.70;99.90;;;;;;5048862;28;20748;-70
2021/06/24 07:57:06;;;;;;;4.18;3.78;;;16.90;99.90;;;;;;5051598;28;20639;-69
2021/06/24 07:59:34;;;;;;;5.68;4.15;;;17.20;99.90;;;;;;5046556;28;20207;-73
2021/06/24 08:02:02;;;;;;;5.25;4.75;;;17.30;99.90;;;;;;5041862;28;20203;-75
2021/06/24 08:04:29;;;;;;;6.47;4.38;;;17.40;99.90;;;;;;5042478;28;20211;-72
2021/06/24 08:06:57;;;;;;;5.05;4.05;;;17.50;99.90;;;;;;5042507;28;20211;-74
2021/06/24 08:09:24;;;;;;;5.90;4.78;;;17.70;99.90;;;;;;5039015;28;20269;-73
2021/06/24 08:11:51;;;;;;;5.63;3.83;;;17.70;99.90;;;;;;5041787;28;20207;-72
2021/06/24 08:14:17;;;;;;;5.18;3.90;;;17.70;99.90;;;;;;5049112;28;20206;-72
2021/06/24 08:16:44;;;;;;;4.80;3.97;;;17.70;99.90;;;;;;5040920;28;20618;-72
2021/06/24 08:19:13;;;;;;;7.70;4.20;;;17.60;99.90;;;;;;5046207;28;20246;-71
2021/06/24 08:21:40;;;;;;;6.10;4.50;;;17.70;99.90;;;;;;5041058;28;20752;-73
2021/06/24 08:24:07;;;;;;;4.43;4.03;;;17.40;99.90;;;;;;5045790;28;20256;-73
2021/06/24 08:26:34;;;;;;;5.72;4.18;;;17.60;99.90;;;;;;5046379;28;20203;-75
2021/06/24 08:29:01;;;;;;;6.60;4.78;;;17.60;99.90;;;;;;5046777;28;20211;-72
2021/06/24 08:31:28;;;;;;;4.97;3.88;;;17.70;99.90;;;;;;5045467;28;20207;-75
2021/06/24 08:33:55;;;;;;;6.15;4.80;;;18.00;99.90;;;;;;5049514;28;20206;-74
2021/06/24 08:36:23;;;;;;;5.80;5.25;;;18.40;99.90;;;;;;5040258;28;20203;-76
2021/06/24 08:38:50;;;;;;;5.40;4.25;;;18.40;99.90;;;;;;5041423;28;20791;-75
2021/06/24 08:41:19;;;;;;;5.65;3.67;;;18.60;99.90;;;;;;5043336;28;20253;-77
2021/06/24 08:43:48;;;;;;;7.18;4.75;;;18.90;99.90;;;;;;5045180;28;20211;-76
2021/06/24 08:46:17;;;;;;;4.80;3.22;;;19.10;99.90;;;;;;5051224;28;20203;-78
2021/06/24 08:48:44;;;;;;;7.03;4.30;;;19.30;99.90;;;;;;5039187;28;20268;-76
2021/06/24 08:51:11;;;;;;;6.13;3.83;;;19.20;99.90;;;;;;5050847;28;20332;-78
2021/06/24 08:53:41;;;;;;;8.93;4.30;;;19.00;99.90;;;;;;5044278;28;20354;-76
2021/06/24 08:56:08;;;;;;;4.78;4.00;;;19.30;99.90;;;;;;5049264;28;20207;-76
2021/06/24 08:58:35;;;;;;;6.18;3.78;;;19.80;99.90;;;;;;5050378;28;20231;-77
2021/06/24 09:01:02;;;;;;;4.80;4.20;;;19.80;99.90;;;;;;5050830;28;20272;-76
2021/06/24 09:03:31;;;;;;;3.22;2.92;;;19.80;99.90;;;;;;5050373;28;20261;-78
2021/06/24 09:06:01;;;;;;;3.80;3.47;;;19.80;99.90;;;;;;5049692;28;20210;-79
2021/06/24 09:08:41;;;;;;;3.95;3.55;;;20.30;99.90;;;;;;5050218;28;20211;-77
2021/06/24 09:11:13;;;;;;;5.55;3.97;;;20.20;99.90;;;;;;5050460;28;20210;-77
2021/06/24 09:13:41;;;;;;;5.38;2.78;;;20.50;99.90;;;;;;5046400;28;20207;-78
2021/06/24 09:16:22;;;;;;;3.42;2.63;;;21.30;99.90;;;;;;5050329;28;20621;-80
2021/06/24 09:18:50;;;;;;;2.95;2.72;;;21.50;99.90;;;;;;5042827;28;20239;-78
2021/06/24 09:21:21;;;;;;;5.30;3.38;;;20.70;99.90;;;;;;5042844;28;20198;-74
2021/06/24 09:23:50;;;;;;;3.53;3.22;;;20.20;99.90;;;;;;5045444;28;20211;-71
2021/06/24 09:26:19;;;;;;;4.47;3.65;;;20.50;99.90;;;;;;5050027;28;20256;-72
2021/06/24 09:28:49;;;;;;;6.68;2.92;;;20.70;99.90;;;;;;5049771;28;20670;-74
2021/06/24 09:31:28;;;;;;;3.67;2.42;;;20.50;99.90;;;;;;5047869;28;20230;-74
2021/06/24 09:33:56;;;;;;;14.27;4.43;;;20.10;99.90;;;;;;5049565;28;20614;-75
2021/06/24 09:36:34;;;;;;;2.90;2.70;;;20.60;99.90;;;;;;5046693;28;20206;-74
2021/06/24 09:39:07;;;;;;;3.55;3.17;;;21.90;99.90;;;;;;5046060;28;20380;-72
2021/06/24 09:41:34;;;;;;;3.55;3.25;;;21.50;99.90;;;;;;5040545;28;20210;-75
2021/06/24 09:44:18;;;;;;;3.25;2.33;;;22.60;99.90;;;;;;5049889;28;20694;-75
2021/06/24 09:46:45;;;;;;;6.13;3.28;;;23.20;99.90;;;;;;5048726;28;20573;-72
2021/06/24 09:49:12;;;;;;;4.50;2.97;;;22.40;99.90;;;;;;5049043;28;20295;-73
2021/06/24 09:51:39;;;;;;;3.45;2.80;;;21.70;99.90;;;;;;5049363;28;20732;-74
2021/06/24 09:54:10;;;;;;;2.60;2.40;;;21.80;99.90;;;;;;5050087;28;20631;-73
2021/06/24 09:56:44;;;;;;;3.78;2.53;;;21.70;99.90;;;;;;5049281;28;20221;-72
2021/06/24 09:59:13;;;;;;;2.47;2.05;;;22.30;99.90;;;;;;5049116;28;20251;-78
2021/06/24 10:01:42;;;;;;;3.78;2.88;;;22.00;99.90;;;;;;5049344;28;20211;-74
2021/06/24 10:04:19;;;;;;;3.25;2.95;;;21.10;99.90;;;;;;5049370;28;20297;-74
2021/06/24 10:06:47;;;;;;;4.75;3.65;;;20.40;99.90;;;;;;5049242;28;20206;-73
2021/06/24 10:09:16;;;;;;;3.08;2.58;;;20.40;99.90;;;;;;5044875;28;20298;-74
2021/06/24 10:11:43;;;;;;;3.00;2.67;;;22.10;99.90;;;;;;5045279;28;20262;-75
2021/06/24 10:14:10;;;;;;;3.55;2.53;;;22.80;99.90;;;;;;5048496;28;20278;-74
2021/06/24 10:16:38;;;;;;;2.88;2.67;;;23.80;99.90;;;;;;5044579;28;20207;-73
2021/06/24 10:19:06;;;;;;;5.63;3.30;;;24.00;99.90;;;;;;5048843;28;20231;-73
2021/06/24 10:21:36;;;;;;;5.60;3.05;;;26.20;99.90;;;;;;5043894;28;20223;-73
2021/06/24 10:24:09;;;;;;;3.72;2.85;;;29.90;99.90;;;;;;5046365;28;20261;-75
2021/06/24 10:26:40;;;;;;;2.60;2.10;;;31.80;99.90;;;;;;5049082;28;20199;-74
2021/06/24 10:29:12;;;;;;;2.97;2.72;;;29.90;99.90;;;;;;5046122;28;20290;-73
2021/06/24 10:31:40;;;;;;;3.00;2.65;;;27.40;99.90;;;;;;5044984;28;20199;-74
2021/06/24 10:34:08;;;;;;;3.30;3.00;;;24.80;99.90;;;;;;5048267;28;20242;-74
2021/06/24 10:36:35;;;;;;;3.28;2.97;;;22.50;99.90;;;;;;5048831;28;20207;-75
2021/06/24 10:39:04;;;;;;;2.72;2.53;;;21.10;99.90;;;;;;5053368;28;20313;-73
2021/06/24 10:42:09;;;;;;;3.47;3.15;;;20.40;99.90;;;;;;5053276;28;20298;-73
2021/06/24 10:44:56;;;;;;;3.70;3.10;;;20.10;99.90;;;;;;5051672;28;20251;-75
2021/06/24 10:47:37;;;;;;;3.17;2.92;;;19.90;99.90;;;;;;5050247;28;20282;-74
2021/06/24 10:50:40;;;;;;;5.75;3.05;;;19.90;99.90;;;;;;5050676;28;20253;-74
2021/06/24 10:53:36;;;;;;;3.28;2.63;;;20.00;99.90;;;;;;5052042;28;20207;-72
2021/06/24 10:56:28;;;;;;;3.63;2.58;;;20.20;99.90;;;;;;5050993;28;20249;-74
2021/06/24 10:58:58;;;;;;;2.50;2.28;;;20.50;99.90;;;;;;5051729;28;20230;-77
2021/06/24 11:01:42;;;;;;;2.60;2.40;;;20.90;99.90;;;;;;5052592;28;20628;-78
2021/06/24 11:04:25;;;;;;;3.38;3.08;;;21.20;99.90;;;;;;5052569;28;20259;-78
2021/06/24 11:06:55;;;;;;;3.58;2.00;;;21.60;99.90;;;;;;5052012;28;20694;-75
2021/06/24 11:09:22;;;;;;;4.95;3.33;;;22.20;99.90;;;;;;5052956;28;20222;-76
2021/06/24 11:11:49;;;;;;;4.07;3.15;;;22.70;99.90;;;;;;5052413;28;20587;-78
2021/06/24 11:15:02;;;;;;;3.72;3.35;;;22.70;99.90;;;;;;5051566;28;20207;-78
2021/06/24 11:17:46;;;;;;;6.60;2.88;;;22.60;99.90;;;;;;5052501;28;20199;-74
2021/06/24 11:20:15;;;;;;;3.03;2.80;;;22.70;99.90;;;;;;5051701;28;20260;-74
2021/06/24 11:22:52;;;;;;;4.43;3.10;;;21.70;99.90;;;;;;5051839;28;20214;-73
2021/06/24 11:25:20;;;;;;;3.53;3.30;;;20.70;99.90;;;;;;5052578;28;20347;-75
2021/06/24 11:27:47;;;;;;;2.90;2.58;;;20.40;99.90;;;;;;5046153;28;20257;-74
2021/06/24 11:30:16;;;;;;;3.20;2.88;;;20.30;99.90;;;;;;5049973;28;20704;-73
2021/06/24 11:32:49;;;;;;;2.67;2.47;;;20.30;99.90;;;;;;5051196;28;20743;-73
2021/06/24 11:35:42;;;;;;;3.67;2.75;;;20.50;99.90;;;;;;5052052;28;20217;-74
2021/06/24 11:38:09;;;;;;;4.32;2.53;;;20.80;99.90;;;;;;5046892;28;20223;-70
2021/06/24 11:40:36;;;;;;;2.17;2.00;;;21.30;99.90;;;;;;5049146;28;20209;-73
2021/06/24 11:43:08;;;;;;;2.85;2.33;;;21.70;99.90;;;;;;5050571;28;20206;-74
2021/06/24 11:45:37;;;;;;;3.45;2.55;;;21.90;99.90;;;;;;5051116;28;20655;-73
2021/06/24 11:48:04;;;;;;;2.90;2.28;;;22.00;99.90;;;;;;5051295;28;20215;-73
2021/06/24 12:04:25;;;;;;;2.90;2.70;;;22.00;99.90;;;;;;5046275;28;20555;-74
2021/06/24 12:06:54;;;;;;;3.28;2.88;;;21.50;99.90;;;;;;5051435;28;20206;-74
2021/06/24 12:09:23;;;;;;;2.75;2.42;;;21.40;99.90;;;;;;5051860;28;20214;-74
2021/06/24 12:11:53;;;;;;;2.50;2.30;;;21.60;99.90;;;;;;5051033;28;20624;-74
2021/06/24 12:14:24;;;;;;;2.63;2.15;;;22.10;99.90;;;;;;5051146;28;20752;-73
2021/06/24 12:17:10;;;;;;;5.50;2.28;;;22.00;99.90;;;;;;5050845;28;20719;-73
2021/06/24 12:19:59;;;;;;;3.47;2.13;;;21.60;99.90;;;;;;5045201;28;20234;-74
2021/06/24 12:22:40;;;;;;;2.05;1.95;;;21.50;99.90;;;;;;5051228;28;20277;-73
2021/06/24 12:25:09;;;;;;;3.15;2.60;;;21.30;99.90;;;;;;5051387;28;20203;-73
2021/06/24 12:27:38;;;;;;;3.03;2.30;;;21.00;99.90;;;;;;5050418;28;20620;-73
2021/06/24 12:30:11;;;;;;;2.45;2.25;;;21.00;99.90;;;;;;5046212;28;20218;-74
2021/06/24 12:32:45;;;;;;;2.40;2.20;;;20.90;99.90;;;;;;5045317;28;20245;-74
2021/06/24 12:35:12;;;;;;;3.38;2.25;;;21.10;99.90;;;;;;5044132;28;20264;-72
2021/06/24 12:37:42;;;;;;;2.80;2.45;;;21.50;99.90;;;;;;5049673;28;20637;-72
2021/06/24 12:40:13;;;;;;;3.10;2.67;;;21.80;99.90;;;;;;5051030;28;20227;-72
2021/06/24 12:42:45;;;;;;;2.45;2.10;;;22.20;99.90;;;;;;5049677;28;20211;-74
2021/06/24 12:45:13;;;;;;;2.25;2.05;;;22.70;99.90;;;;;;5049858;28;20203;-73
2021/06/24 12:47:43;;;;;;;3.63;2.60;;;23.30;99.90;;;;;;5041561;28;20683;-74
2021/06/24 12:50:13;;;;;;;6.05;2.10;;;23.50;99.90;;;;;;5050647;28;20584;-73
2021/06/24 12:52:46;;;;;;;3.60;2.38;;;23.30;99.90;;;;;;5041031;28;20253;-75
2021/06/24 12:55:38;;;;;;;2.30;1.83;;;22.90;99.90;;;;;;5048173;28;20203;-75
2021/06/24 12:58:07;;;;;;;3.20;2.22;;;22.70;99.90;;;;;;5042986;28;20207;-74
2021/06/24 13:00:34;;;;;;;3.47;2.38;;;22.00;99.90;;;;;;5050898;28;20210;-74
2021/06/24 13:03:03;;;;;;;2.75;2.50;;;21.70;99.90;;;;;;5050891;28;20207;-74
2021/06/24 13:05:33;;;;;;;2.50;2.15;;;21.90;99.90;;;;;;5049866;28;20739;-75
2021/06/24 13:08:04;;;;;;;2.40;1.90;;;21.90;99.90;;;;;;5048522;28;20209;-74
2021/06/24 13:10:31;;;;;;;3.50;2.00;;;22.20;99.90;;;;;;5050368;28;20215;-74